createdAt,value
2023-04-06T00:01:42.569Z,1.57
2023-04-06T00:04:09.133Z,1.31
2023-04-06T00:06:38.022Z,1.42
2023-04-06T00:09:04.634Z,1.42
2023-04-06T00:11:31.180Z,1.45
2023-04-06T00:14:00.409Z,1.54
2023-04-06T00:16:39.202Z,1.51
2023-04-06T00:19:05.619Z,1.60
2023-04-06T00:21:33.189Z,1.72
2023-04-06T00:24:01.975Z,1.46
2023-04-06T00:26:28.522Z,1.46
2023-04-06T00:28:54.940Z,1.58
2023-04-06T00:31:21.407Z,1.46
2023-04-06T00:33:49.209Z,1.43
2023-04-06T00:36:15.796Z,1.37
2023-04-06T00:38:42.207Z,1.24
2023-04-06T00:41:08.587Z,1.17
2023-04-06T00:43:35.140Z,1.27
2023-04-06T00:46:01.582Z,1.16
2023-04-06T00:48:28.197Z,1.15
2023-04-06T00:50:58.053Z,1.24
2023-04-06T00:53:26.867Z,1.14
2023-04-06T00:55:53.387Z,1.05
2023-04-06T00:58:19.957Z,1.06
2023-04-06T01:00:46.636Z,1.19
2023-04-06T01:03:15.653Z,1.01
2023-04-06T01:05:43.611Z,1.14
2023-04-06T01:08:10.425Z,1.08
2023-04-06T01:10:36.855Z,1.10
2023-04-06T01:13:03.353Z,1.20
2023-04-06T01:15:31.021Z,1.08
2023-04-06T01:17:57.422Z,1.02
2023-04-06T01:20:23.986Z,1.08
2023-04-06T01:22:50.616Z,0.56
2023-04-06T01:25:17.307Z,0.41
2023-04-06T01:27:46.627Z,0.46
2023-04-06T01:30:13.551Z,0.43
2023-04-06T01:32:39.978Z,0.47
2023-04-06T01:35:06.690Z,0.47
2023-04-06T01:37:33.575Z,0.37
2023-04-06T01:40:03.551Z,0.37
2023-04-06T01:42:31.349Z,0.41
2023-04-06T01:44:58.000Z,0.47
2023-04-06T01:47:24.474Z,0.49
2023-04-06T01:49:51.045Z,0.42
2023-04-06T01:52:17.417Z,0.39
2023-04-06T01:54:43.798Z,0.33
2023-04-06T01:57:11.890Z,0.22
2023-04-06T01:59:38.549Z,0.16
2023-04-06T02:02:05.463Z,0.23
2023-04-06T02:04:34.160Z,0.20
2023-04-06T02:07:00.520Z,0.21
2023-04-06T02:09:29.383Z,0.06
2023-04-06T02:11:56.665Z,0.05
2023-04-06T02:14:26.469Z,0.00
2023-04-06T02:16:53.033Z,0.07
2023-04-06T02:19:19.810Z,0.03
2023-04-06T02:21:46.424Z,0.05
2023-04-06T02:24:13.026Z,-0.02
2023-04-06T02:26:39.568Z,-0.08
2023-04-06T02:29:07.147Z,-0.07
2023-04-06T02:31:33.771Z,-0.07
2023-04-06T02:34:02.838Z,-0.07
2023-04-06T02:36:34.190Z,0.02
2023-04-06T02:39:00.558Z,-0.06
2023-04-06T02:41:29.607Z,-0.12
2023-04-06T02:43:56.328Z,-0.22
2023-04-06T02:46:22.993Z,-0.14
2023-04-06T02:48:49.655Z,-0.14
2023-04-06T02:51:16.094Z,0.01
2023-04-06T02:53:44.890Z,-0.12
2023-04-06T02:56:11.383Z,-0.26
2023-04-06T02:58:38.032Z,-0.22
2023-04-06T03:01:04.853Z,-0.25
2023-04-06T03:03:31.641Z,-0.22
2023-04-06T03:05:59.553Z,-0.34
2023-04-06T03:08:26.057Z,-0.35
2023-04-06T03:10:52.464Z,-0.35
2023-04-06T03:13:18.952Z,-0.50
2023-04-06T03:15:45.525Z,-0.43
2023-04-06T03:18:12.066Z,-0.37
2023-04-06T03:20:38.440Z,-0.42
2023-04-06T03:23:04.957Z,-0.48
2023-04-06T03:25:31.352Z,-0.39
2023-04-06T03:28:00.764Z,-0.43
2023-04-06T03:30:27.522Z,-0.40
2023-04-06T03:32:56.143Z,-0.41
2023-04-06T03:35:22.611Z,-0.28
2023-04-06T03:37:49.096Z,-0.25
2023-04-06T03:40:15.651Z,-0.29
2023-04-06T03:42:44.985Z,-0.35
2023-04-06T03:45:14.960Z,-0.36
2023-04-06T03:47:44.028Z,-0.31
2023-04-06T03:50:10.962Z,-0.47
2023-04-06T03:52:37.480Z,-0.53
2023-04-06T03:55:04.203Z,-0.42
2023-04-06T03:57:30.714Z,-0.47
2023-04-06T03:59:57.148Z,-0.41
2023-04-06T04:02:23.673Z,-0.38
2023-04-06T04:04:50.308Z,-0.16
2023-04-06T04:07:16.791Z,-0.09
2023-04-06T04:09:45.619Z,-0.32
2023-04-06T04:12:12.097Z,-0.27
2023-04-06T04:14:41.590Z,-0.28
2023-04-06T04:17:07.950Z,-0.33
2023-04-06T04:19:34.360Z,-0.29
2023-04-06T04:22:00.891Z,-0.09
2023-04-06T04:24:27.470Z,-0.11
2023-04-06T04:26:53.936Z,-0.35
2023-04-06T04:29:22.167Z,-0.41
2023-04-06T04:31:48.616Z,-0.43
2023-04-06T04:34:16.089Z,-0.40
2023-04-06T04:36:45.602Z,-0.62
2023-04-06T04:39:11.978Z,-0.62
2023-04-06T04:41:38.531Z,-0.46
2023-04-06T04:44:08.318Z,-0.46
2023-04-06T04:46:37.359Z,-0.63
2023-04-06T04:49:06.343Z,-0.57
2023-04-06T04:51:33.652Z,-0.61
2023-04-06T04:54:00.294Z,-0.51
2023-04-06T04:56:28.508Z,-0.28
2023-04-06T04:58:55.229Z,-0.18
2023-04-06T05:01:21.689Z,-0.19
2023-04-06T05:03:50.970Z,-0.12
2023-04-06T05:06:17.731Z,-0.07
2023-04-06T05:08:44.131Z,-0.05
2023-04-06T05:11:11.102Z,0.12
2023-04-06T05:13:40.532Z,0.16
2023-04-06T05:16:07.246Z,0.16
2023-04-06T05:18:33.746Z,0.23
2023-04-06T05:21:00.495Z,0.19
2023-04-06T05:23:27.181Z,0.25
2023-04-06T05:25:53.610Z,0.34
2023-04-06T05:28:20.316Z,0.41
2023-04-06T05:30:49.314Z,0.44
2023-04-06T05:33:16.117Z,0.55
2023-04-06T05:35:42.686Z,0.53
2023-04-06T05:38:10.890Z,0.51
2023-04-06T05:40:39.493Z,0.61
2023-04-06T05:43:06.033Z,0.62
2023-04-06T05:45:32.396Z,0.75
2023-04-06T05:47:58.980Z,0.84
2023-04-06T05:50:25.910Z,0.98
2023-04-06T05:52:52.301Z,0.86
2023-04-06T05:55:18.900Z,0.98
2023-04-06T05:57:45.305Z,1.13
2023-04-06T06:00:12.357Z,1.19
2023-04-06T06:02:43.236Z,1.38
2023-04-06T06:05:11.271Z,1.61
2023-04-06T06:07:38.003Z,1.59
2023-04-06T06:10:04.663Z,1.94
2023-04-06T06:12:31.559Z,2.13
2023-04-06T06:14:58.279Z,2.27
2023-04-06T06:17:24.841Z,2.38
2023-04-06T06:19:51.243Z,2.53
2023-04-06T06:22:17.735Z,2.72
2023-04-06T06:24:44.412Z,3.06
2023-04-06T06:27:11.207Z,3.17
2023-04-06T06:29:37.741Z,3.56
2023-04-06T06:32:04.269Z,3.67
2023-04-06T06:34:30.903Z,3.92
2023-04-06T06:36:57.628Z,4.22
2023-04-06T06:39:24.260Z,4.60
2023-04-06T06:41:50.886Z,4.82
2023-04-06T06:44:17.690Z,5.26
2023-04-06T06:46:49.606Z,5.37
2023-04-06T06:49:16.161Z,6.12
2023-04-06T06:51:42.521Z,6.04
2023-04-06T06:54:09.491Z,6.37
2023-04-06T06:56:39.107Z,6.65
2023-04-06T06:59:08.469Z,6.84
2023-04-06T07:01:35.854Z,7.19
2023-04-06T07:04:02.881Z,7.20
2023-04-06T07:06:29.334Z,7.15
2023-04-06T07:08:58.978Z,7.57
2023-04-06T07:11:25.527Z,7.56
2023-04-06T07:13:52.221Z,7.79
2023-04-06T07:16:18.640Z,7.77
2023-04-06T07:18:45.014Z,8.06
2023-04-06T07:21:11.357Z,8.08
2023-04-06T07:23:38.115Z,8.11
2023-04-06T07:26:04.641Z,7.77
2023-04-06T07:28:31.072Z,8.04
2023-04-06T07:30:57.500Z,8.32
2023-04-06T07:33:23.890Z,8.61
2023-04-06T07:35:53.485Z,8.95
2023-04-06T07:38:19.950Z,9.23
2023-04-06T07:40:46.305Z,9.35
2023-04-06T07:43:15.305Z,9.56
2023-04-06T07:45:41.705Z,9.31
2023-04-06T07:48:08.125Z,9.58
2023-04-06T07:50:34.904Z,9.82
2023-04-06T07:53:02.047Z,9.56
2023-04-06T07:55:28.487Z,9.48
2023-04-06T07:57:55.016Z,9.34
2023-04-06T08:00:21.868Z,9.36
2023-04-06T08:02:48.326Z,9.88
2023-04-06T08:05:15.002Z,9.48
2023-04-06T08:07:42.593Z,9.78
2023-04-06T08:10:09.500Z,10.18
2023-04-06T08:12:35.974Z,10.23
2023-04-06T08:15:06.154Z,9.69
2023-04-06T08:17:33.176Z,10.13
2023-04-06T08:19:59.705Z,10.47
2023-04-06T08:22:30.887Z,10.24
2023-04-06T08:24:57.378Z,10.59
2023-04-06T08:27:23.956Z,10.65
2023-04-06T08:29:52.101Z,10.83
2023-04-06T08:32:18.532Z,10.88
2023-04-06T08:34:48.037Z,10.58
2023-04-06T08:37:14.655Z,11.03
2023-04-06T08:39:41.239Z,10.92
2023-04-06T08:42:19.678Z,11.10
2023-04-06T08:44:47.183Z,11.33
2023-04-06T08:47:14.066Z,11.22
2023-04-06T08:49:44.418Z,11.44
2023-04-06T08:52:11.872Z,11.95
2023-04-06T08:54:39.149Z,11.76
2023-04-06T08:57:10.958Z,11.27
2023-04-06T08:59:37.964Z,11.36
2023-04-06T09:02:11.611Z,11.69
2023-04-06T09:04:38.271Z,11.76
2023-04-06T09:07:05.034Z,12.00
2023-04-06T09:09:33.677Z,11.99
2023-04-06T09:12:06.678Z,12.13
2023-04-06T09:14:41.875Z,12.30
2023-04-06T09:17:08.307Z,12.51
2023-04-06T09:19:34.947Z,12.64
2023-04-06T09:22:05.990Z,13.14
2023-04-06T09:24:46.727Z,13.21
2023-04-06T09:27:14.292Z,13.12
2023-04-06T09:29:41.918Z,13.41
2023-04-06T09:32:13.154Z,13.51
2023-04-06T09:34:40.152Z,13.85
2023-04-06T09:37:22.192Z,13.47
2023-04-06T09:39:48.832Z,13.27
2023-04-06T09:42:27.757Z,13.68
2023-04-06T09:44:54.182Z,14.03
2023-04-06T09:47:20.946Z,14.22
2023-04-06T09:49:50.749Z,14.19
2023-04-06T09:52:19.032Z,13.83
2023-04-06T09:54:53.652Z,14.24
2023-04-06T09:57:29.655Z,14.78
2023-04-06T10:00:15.405Z,14.46
2023-04-06T10:03:12.878Z,14.63
2023-04-06T10:05:55.996Z,15.19
2023-04-06T10:08:26.410Z,15.50
2023-04-06T10:10:53.282Z,14.99
2023-04-06T10:13:20.055Z,15.25
2023-04-06T10:15:46.683Z,14.56
2023-04-06T10:18:17.197Z,14.97
2023-04-06T10:20:49.281Z,15.11
2023-04-06T10:23:16.832Z,15.31
2023-04-06T10:26:14.374Z,15.43
2023-04-06T10:28:42.943Z,14.75
2023-04-06T10:31:09.359Z,14.59
2023-04-06T10:33:36.555Z,15.25
2023-04-06T10:36:12.654Z,14.90
2023-04-06T10:38:41.907Z,15.28
2023-04-06T10:41:15.815Z,14.65
2023-04-06T10:43:42.696Z,14.74
2023-04-06T10:46:10.521Z,14.86
2023-04-06T10:48:57.792Z,15.01
2023-04-06T10:51:49.607Z,15.33
2023-04-06T10:54:35.754Z,15.79
2023-04-06T10:57:20.934Z,15.26
2023-04-06T11:00:06.343Z,15.33
2023-04-06T11:02:51.517Z,15.25
2023-04-06T11:05:36.694Z,14.98
2023-04-06T11:08:21.646Z,15.08
2023-04-06T11:11:09.609Z,15.23
2023-04-06T11:14:00.257Z,15.22
2023-04-06T11:16:50.653Z,15.32
2023-04-06T11:19:36.113Z,14.72
2023-04-06T11:22:27.233Z,14.76
2023-04-06T11:25:13.172Z,14.93
2023-04-06T11:27:58.355Z,14.86
2023-04-06T11:30:43.737Z,15.43
2023-04-06T11:33:28.902Z,14.95
2023-04-06T11:36:17.184Z,15.17
2023-04-06T11:39:02.622Z,14.90
2023-04-06T11:41:47.388Z,15.43
2023-04-06T11:44:35.725Z,15.73
2023-04-06T11:47:26.215Z,15.19
2023-04-06T11:50:01.820Z,15.63
2023-04-06T11:52:29.062Z,16.26
2023-04-06T11:54:57.763Z,16.64
2023-04-06T11:57:26.857Z,16.87
2023-04-06T11:59:53.930Z,16.44
2023-04-06T12:02:20.336Z,16.42
2023-04-06T12:04:50.008Z,15.96
2023-04-06T12:07:16.473Z,16.18
2023-04-06T12:09:43.884Z,16.28
2023-04-06T12:12:10.459Z,16.59
2023-04-06T12:14:39.327Z,16.47
2023-04-06T12:17:05.915Z,17.05
2023-04-06T12:19:32.718Z,17.46
2023-04-06T12:21:59.523Z,17.24
2023-04-06T12:24:26.295Z,16.59
2023-04-06T12:27:08.653Z,17.01
2023-04-06T12:29:36.070Z,17.57
2023-04-06T12:32:02.693Z,17.29
2023-04-06T12:34:29.443Z,16.72
2023-04-06T12:36:56.831Z,16.47
2023-04-06T12:39:23.623Z,16.50
2023-04-06T12:41:53.113Z,15.72
2023-04-06T12:44:19.643Z,15.42
2023-04-06T12:46:46.377Z,15.71
2023-04-06T12:49:17.755Z,15.86
2023-04-06T12:51:44.128Z,15.65
2023-04-06T12:54:11.950Z,16.72
2023-04-06T12:56:38.576Z,16.96
2023-04-06T12:59:04.998Z,16.78
2023-04-06T13:01:31.829Z,16.83
2023-04-06T13:04:00.134Z,16.57
2023-04-06T13:06:29.487Z,16.84
2023-04-06T13:08:57.812Z,16.71
2023-04-06T13:11:30.039Z,16.55
2023-04-06T13:13:56.553Z,16.34
2023-04-06T13:16:25.972Z,16.89
2023-04-06T13:18:54.724Z,16.34
2023-04-06T13:21:21.858Z,16.31
2023-04-06T13:23:48.417Z,16.02
2023-04-06T13:26:17.715Z,16.13
2023-04-06T13:28:48.838Z,16.30
2023-04-06T13:31:15.452Z,16.28
2023-04-06T13:33:42.027Z,16.95
2023-04-06T13:36:08.999Z,16.00
2023-04-06T13:38:35.621Z,16.09
2023-04-06T13:41:02.218Z,15.92
2023-04-06T13:43:28.664Z,15.78
2023-04-06T13:45:59.450Z,16.12
2023-04-06T13:48:27.057Z,15.71
2023-04-06T13:50:53.498Z,15.60
2023-04-06T13:53:20.059Z,15.63
2023-04-06T13:55:53.733Z,15.76
2023-04-06T13:58:20.288Z,15.48
2023-04-06T14:00:47.229Z,15.71
2023-04-06T14:03:16.384Z,15.68
2023-04-06T14:05:43.073Z,15.68
2023-04-06T14:08:09.546Z,15.64
2023-04-06T14:10:41.346Z,15.85
2023-04-06T14:13:11.034Z,15.68
2023-04-06T14:15:40.123Z,15.74
2023-04-06T14:18:09.192Z,15.68
2023-04-06T14:20:38.088Z,15.89
2023-04-06T14:23:04.783Z,15.60
2023-04-06T14:25:32.835Z,15.41
2023-04-06T14:27:59.363Z,15.51
2023-04-06T14:30:25.972Z,15.32
2023-04-06T14:32:52.806Z,15.13
2023-04-06T14:35:21.899Z,15.27
2023-04-06T14:37:48.415Z,15.12
2023-04-06T14:40:14.892Z,14.95
2023-04-06T14:42:41.574Z,15.08
2023-04-06T14:45:08.337Z,14.98
2023-04-06T14:47:34.843Z,14.93
2023-04-06T14:50:05.018Z,15.07
2023-04-06T14:52:32.792Z,14.98
2023-04-06T14:54:59.520Z,14.91
2023-04-06T14:57:25.926Z,15.07
2023-04-06T14:59:54.452Z,15.10
2023-04-06T15:02:23.859Z,14.81
2023-04-06T15:04:54.009Z,14.87
2023-04-06T15:07:21.473Z,14.93
2023-04-06T15:09:47.843Z,14.77
2023-04-06T15:12:14.295Z,14.69
2023-04-06T15:14:42.990Z,14.75
2023-04-06T15:17:09.389Z,14.69
2023-04-06T15:19:35.988Z,14.96
2023-04-06T15:22:02.518Z,14.67
2023-04-06T15:24:28.924Z,14.62
2023-04-06T15:26:55.942Z,14.62
2023-04-06T15:29:22.438Z,14.55
2023-04-06T15:31:51.237Z,14.52
2023-04-06T15:34:17.829Z,14.47
2023-04-06T15:36:46.541Z,14.48
2023-04-06T15:39:13.875Z,14.58
2023-04-06T15:41:43.389Z,14.70
2023-04-06T15:44:11.920Z,14.75
2023-04-06T15:46:38.526Z,14.73
2023-04-06T15:49:05.050Z,14.58
2023-04-06T15:51:31.490Z,14.46
2023-04-06T15:53:58.625Z,14.53
2023-04-06T15:56:27.397Z,14.62
2023-04-06T15:58:53.800Z,14.48
2023-04-06T16:01:20.596Z,14.63
2023-04-06T16:03:47.559Z,14.49
2023-04-06T16:06:14.254Z,14.55
2023-04-06T16:08:41.079Z,14.35
2023-04-06T16:11:10.417Z,14.48
2023-04-06T16:13:37.049Z,14.45
2023-04-06T16:16:06.873Z,14.51
2023-04-06T16:18:36.220Z,14.41
2023-04-06T16:21:03.400Z,14.38
2023-04-06T16:23:32.230Z,14.43
2023-04-06T16:25:58.655Z,14.44
2023-04-06T16:28:25.625Z,14.28
2023-04-06T16:30:54.342Z,14.38
2023-04-06T16:33:21.092Z,14.38
2023-04-06T16:35:48.382Z,14.43
2023-04-06T16:38:15.967Z,14.23
2023-04-06T16:40:42.536Z,14.22
2023-04-06T16:43:09.924Z,14.11
2023-04-06T16:45:36.919Z,14.01
2023-04-06T16:48:04.096Z,14.05
2023-04-06T16:50:30.737Z,14.04
2023-04-06T16:52:57.137Z,13.94
2023-04-06T16:55:23.621Z,13.99
2023-04-06T16:57:50.159Z,13.84
2023-04-06T17:00:17.138Z,13.81
2023-04-06T17:02:47.095Z,13.51
2023-04-06T17:05:14.169Z,13.18
2023-04-06T17:07:45.407Z,13.18
2023-04-06T17:10:11.869Z,12.92
2023-04-06T17:12:38.236Z,13.02
2023-04-06T17:15:04.925Z,13.02
2023-04-06T17:17:33.770Z,12.91
2023-04-06T17:20:00.344Z,12.98
2023-04-06T17:22:29.120Z,12.96
2023-04-06T17:24:55.517Z,12.91
2023-04-06T17:27:23.526Z,12.65
2023-04-06T17:29:50.058Z,12.58
2023-04-06T17:32:16.571Z,12.54
2023-04-06T17:34:43.076Z,12.25
2023-04-06T17:37:09.650Z,12.36
2023-04-06T17:39:36.686Z,12.25
2023-04-06T17:42:06.829Z,12.32
2023-04-06T17:44:33.962Z,12.20
2023-04-06T17:47:00.513Z,12.31
2023-04-06T17:49:26.879Z,12.29
2023-04-06T17:51:53.244Z,12.39
2023-04-06T17:54:19.640Z,12.38
2023-04-06T17:56:48.906Z,12.29
2023-04-06T17:59:15.540Z,12.16
2023-04-06T18:01:42.078Z,12.01
2023-04-06T18:04:08.525Z,12.09
2023-04-06T18:06:35.159Z,12.00
2023-04-06T18:09:03.494Z,11.91
2023-04-06T18:11:35.822Z,12.12
2023-04-06T18:14:05.887Z,11.99
2023-04-06T18:16:34.544Z,12.19
2023-04-06T18:19:01.684Z,12.13
2023-04-06T18:21:28.636Z,11.86
2023-04-06T18:23:55.443Z,11.96
2023-04-06T18:26:22.149Z,11.91
2023-04-06T18:28:50.983Z,11.85
2023-04-06T18:31:21.598Z,11.57
2023-04-06T18:33:48.111Z,11.41
2023-04-06T18:36:16.971Z,11.63
2023-04-06T18:38:47.859Z,11.41
2023-04-06T18:41:18.168Z,11.59
2023-04-06T18:43:44.786Z,11.41
2023-04-06T18:46:15.679Z,11.48
2023-04-06T18:48:45.666Z,11.49
2023-04-06T18:51:12.045Z,11.64
2023-04-06T18:53:41.045Z,11.69
2023-04-06T18:56:18.789Z,11.33
2023-04-06T18:58:46.452Z,10.92
2023-04-06T19:01:29.023Z,10.82
2023-04-06T19:03:56.682Z,10.77
2023-04-06T19:06:27.398Z,10.73
2023-04-06T19:08:53.969Z,10.55
2023-04-06T19:11:23.119Z,10.68
2023-04-06T19:13:49.977Z,10.55
2023-04-06T19:16:17.742Z,10.70
2023-04-06T19:18:45.483Z,10.76
2023-04-06T19:21:15.719Z,10.55
2023-04-06T19:23:45.099Z,10.58
2023-04-06T19:26:12.935Z,10.55
2023-04-06T19:28:39.665Z,10.63
2023-04-06T19:31:08.749Z,10.76
2023-04-06T19:33:36.685Z,10.42
2023-04-06T19:36:06.230Z,10.42
2023-04-06T19:38:34.147Z,10.50
2023-04-06T19:41:01.792Z,10.14
2023-04-06T19:43:31.061Z,10.43
2023-04-06T19:46:00.740Z,10.34
2023-04-06T19:48:27.215Z,10.24
2023-04-06T19:50:57.014Z,10.24
2023-04-06T19:53:23.653Z,10.27
2023-04-06T19:55:52.525Z,9.91
2023-04-06T19:58:18.912Z,10.05
2023-04-06T20:00:47.779Z,10.15
2023-04-06T20:03:14.472Z,9.86
2023-04-06T20:05:41.074Z,9.59
2023-04-06T20:08:09.977Z,9.52
2023-04-06T20:10:36.552Z,9.67
2023-04-06T20:13:04.256Z,9.71
2023-04-06T20:15:33.040Z,9.51
2023-04-06T20:17:59.433Z,9.58
2023-04-06T20:20:26.008Z,9.76
2023-04-06T20:22:52.536Z,9.53
2023-04-06T20:25:19.714Z,9.56
2023-04-06T20:27:48.651Z,9.59
2023-04-06T20:30:16.740Z,9.81
2023-04-06T20:32:43.687Z,9.70
2023-04-06T20:35:12.983Z,9.71
2023-04-06T20:37:39.437Z,9.43
2023-04-06T20:40:06.832Z,9.88
2023-04-06T20:42:34.365Z,9.97
2023-04-06T20:45:03.498Z,9.94
2023-04-06T20:47:31.490Z,9.69
2023-04-06T20:49:58.148Z,9.65
2023-04-06T20:52:24.697Z,9.86
2023-04-06T20:54:51.117Z,9.47
2023-04-06T20:57:17.708Z,9.72
2023-04-06T20:59:45.194Z,9.72
2023-04-06T21:02:11.767Z,9.08
2023-04-06T21:04:43.480Z,9.15
2023-04-06T21:07:10.389Z,9.13
2023-04-06T21:09:38.599Z,9.15
2023-04-06T21:12:06.520Z,9.32
2023-04-06T21:14:33.340Z,9.15
2023-04-06T21:17:04.666Z,9.27
2023-04-06T21:19:33.526Z,9.04
2023-04-06T21:22:00.147Z,8.95
2023-04-06T21:24:27.071Z,9.12
2023-04-06T21:26:53.505Z,9.00
2023-04-06T21:29:20.106Z,9.11
2023-04-06T21:31:46.554Z,9.24
2023-04-06T21:34:14.016Z,9.10
2023-04-06T21:36:41.614Z,8.87
2023-04-06T21:39:08.493Z,8.93
2023-04-06T21:41:34.900Z,9.00
2023-04-06T21:44:01.338Z,9.24
2023-04-06T21:46:27.873Z,9.55
2023-04-06T21:48:54.352Z,9.04
2023-04-06T21:51:22.009Z,8.98
2023-04-06T21:53:49.037Z,9.38
2023-04-06T21:56:24.232Z,8.83
2023-04-06T21:58:51.673Z,8.85
2023-04-06T22:01:19.342Z,9.32
2023-04-06T22:03:46.818Z,9.51
2023-04-06T22:06:13.923Z,8.94
2023-04-06T22:08:40.484Z,8.63
2023-04-06T22:11:09.014Z,9.25
2023-04-06T22:13:38.615Z,8.80
2023-04-06T22:16:11.526Z,8.76
2023-04-06T22:18:39.247Z,8.66
2023-04-06T22:21:06.939Z,8.85
2023-04-06T22:23:33.555Z,9.03
2023-04-06T22:26:04.950Z,8.65
2023-04-06T22:28:31.302Z,8.39
2023-04-06T22:30:57.717Z,8.27
2023-04-06T22:33:26.566Z,8.59
2023-04-06T22:35:53.045Z,8.69
2023-04-06T22:38:19.447Z,8.51
2023-04-06T22:40:45.894Z,8.52
2023-04-06T22:43:12.258Z,8.83
2023-04-06T22:45:41.669Z,8.64
2023-04-06T22:48:08.136Z,8.60
2023-04-06T22:50:35.357Z,8.76
2023-04-06T22:53:02.297Z,8.75
2023-04-06T22:55:28.919Z,8.92
2023-04-06T22:57:55.447Z,8.97
2023-04-06T23:00:28.282Z,9.27
2023-04-06T23:02:55.011Z,9.30
2023-04-06T23:05:21.582Z,9.48
2023-04-06T23:07:51.341Z,9.08
2023-04-06T23:10:21.071Z,8.88
2023-04-06T23:12:48.313Z,8.69
2023-04-06T23:15:14.908Z,8.86
2023-04-06T23:17:41.549Z,8.47
2023-04-06T23:20:08.237Z,8.71
2023-04-06T23:22:37.239Z,8.51
2023-04-06T23:25:03.966Z,8.93
2023-04-06T23:27:33.014Z,8.86
2023-04-06T23:29:59.737Z,8.82
2023-04-06T23:32:28.564Z,8.82
2023-04-06T23:34:54.994Z,8.99
2023-04-06T23:37:21.423Z,9.07
2023-04-06T23:39:48.446Z,9.09
2023-04-06T23:42:14.904Z,8.91
2023-04-06T23:44:41.343Z,8.63
2023-04-06T23:47:07.908Z,8.65
2023-04-06T23:49:36.648Z,8.30
2023-04-06T23:52:03.552Z,8.35
2023-04-06T23:54:32.254Z,8.35
2023-04-06T23:57:01.300Z,8.30
2023-04-06T23:59:29.965Z,8.42
